Terminal Aerodrome Forecast
Issued by NWS Cleveland, OH

Home | Current Version | Previous Version | Graphics & Text | Print | Product List | Glossary On
Versions: 1 2 3 4 5 6 7 8 9 10 11 12 13 14 15 16 17 18 19 20 21 22 23 24 25 26 27
000
FTUS41 KCLE 251300 AAA
TAFYNG
TAF AMD
KYNG 251325Z 2513/2612 03010KT 1SM -FZDZSN BR OVC004
     FM251700 05010KT 2SM BR OVC005
     FM251900 03012KT 2SM -SN OVC005
     FM252200 04012KT 1SM -SN OVC004=

USA.gov is the U.S. government's official web portal to all federal, state and local government web resources and services.